sensor_id;sensor_type;location;lat;lon;timestamp;P1;durP1;ratioP1;P2;durP2;ratioP2
18019;SDS011;9135;48.362;10.878;2023-05-20T00:00:44;1.60;;;1.58;;
18019;SDS011;9135;48.362;10.878;2023-05-20T00:03:13;2.00;;;1.30;;
18019;SDS011;9135;48.362;10.878;2023-05-20T00:05:39;2.25;;;2.13;;
18019;SDS011;9135;48.362;10.878;2023-05-20T00:08:05;1.52;;;1.45;;
18019;SDS011;9135;48.362;10.878;2023-05-20T00:10:33;1.40;;;1.40;;
18019;SDS011;9135;48.362;10.878;2023-05-20T00:12:59;1.50;;;1.40;;
18019;SDS011;9135;48.362;10.878;2023-05-20T00:15:25;2.40;;;1.58;;
18019;SDS011;9135;48.362;10.878;2023-05-20T00:17:51;1.52;;;1.33;;
18019;SDS011;9135;48.362;10.878;2023-05-20T00:20:18;2.50;;;1.73;;
18019;SDS011;9135;48.362;10.878;2023-05-20T00:22:44;3.83;;;1.85;;
18019;SDS011;9135;48.362;10.878;2023-05-20T00:25:10;1.70;;;1.58;;
18019;SDS011;9135;48.362;10.878;2023-05-20T00:27:38;2.28;;;1.90;;
18019;SDS011;9135;48.362;10.878;2023-05-20T00:30:04;3.05;;;1.70;;
18019;SDS011;9135;48.362;10.878;2023-05-20T00:32:31;1.80;;;1.70;;
18019;SDS011;9135;48.362;10.878;2023-05-20T00:34:57;1.75;;;1.38;;
18019;SDS011;9135;48.362;10.878;2023-05-20T00:37:23;1.35;;;1.27;;
18019;SDS011;9135;48.362;10.878;2023-05-20T00:39:49;2.65;;;2.03;;
18019;SDS011;9135;48.362;10.878;2023-05-20T00:42:22;1.80;;;1.70;;
18019;SDS011;9135;48.362;10.878;2023-05-20T00:44:48;1.65;;;1.33;;
18019;SDS011;9135;48.362;10.878;2023-05-20T00:47:18;2.20;;;2.10;;
18019;SDS011;9135;48.362;10.878;2023-05-20T00:49:45;2.53;;;1.73;;
18019;SDS011;9135;48.362;10.878;2023-05-20T00:52:11;5.40;;;1.42;;
18019;SDS011;9135;48.362;10.878;2023-05-20T00:54:37;1.77;;;1.60;;
18019;SDS011;9135;48.362;10.878;2023-05-20T00:57:04;1.80;;;1.70;;
18019;SDS011;9135;48.362;10.878;2023-05-20T00:59:31;1.65;;;1.60;;
18019;SDS011;9135;48.362;10.878;2023-05-20T01:01:57;2.00;;;1.90;;
18019;SDS011;9135;48.362;10.878;2023-05-20T01:04:23;2.28;;;2.17;;
18019;SDS011;9135;48.362;10.878;2023-05-20T01:06:49;1.83;;;1.73;;
18019;SDS011;9135;48.362;10.878;2023-05-20T01:09:16;3.83;;;2.43;;
18019;SDS011;9135;48.362;10.878;2023-05-20T01:11:49;1.50;;;1.40;;
18019;SDS011;9135;48.362;10.878;2023-05-20T01:14:18;1.70;;;1.63;;
18019;SDS011;9135;48.362;10.878;2023-05-20T01:16:46;3.13;;;1.70;;
18019;SDS011;9135;48.362;10.878;2023-05-20T01:19:26;2.00;;;1.90;;
18019;SDS011;9135;48.362;10.878;2023-05-20T01:21:58;2.53;;;1.37;;
18019;SDS011;9135;48.362;10.878;2023-05-20T01:24:25;1.10;;;1.10;;
18019;SDS011;9135;48.362;10.878;2023-05-20T01:26:51;1.83;;;1.73;;
18019;SDS011;9135;48.362;10.878;2023-05-20T01:29:17;1.75;;;1.65;;
18019;SDS011;9135;48.362;10.878;2023-05-20T01:31:43;2.50;;;2.22;;
18019;SDS011;9135;48.362;10.878;2023-05-20T01:34:10;1.75;;;1.65;;
18019;SDS011;9135;48.362;10.878;2023-05-20T01:36:36;1.70;;;1.60;;
18019;SDS011;9135;48.362;10.878;2023-05-20T01:39:02;1.87;;;1.77;;
18019;SDS011;9135;48.362;10.878;2023-05-20T01:41:29;1.60;;;1.52;;
18019;SDS011;9135;48.362;10.878;2023-05-20T01:43:58;1.87;;;1.77;;
18019;SDS011;9135;48.362;10.878;2023-05-20T01:46:24;2.00;;;1.87;;
18019;SDS011;9135;48.362;10.878;2023-05-20T01:48:50;1.27;;;1.27;;
18019;SDS011;9135;48.362;10.878;2023-05-20T01:51:16;1.60;;;1.50;;
18019;SDS011;9135;48.362;10.878;2023-05-20T01:53:42;2.40;;;1.77;;
18019;SDS011;9135;48.362;10.878;2023-05-20T01:56:09;2.07;;;1.57;;
18019;SDS011;9135;48.362;10.878;2023-05-20T01:58:35;2.47;;;2.03;;
18019;SDS011;9135;48.362;10.878;2023-05-20T02:01:01;1.58;;;1.52;;
18019;SDS011;9135;48.362;10.878;2023-05-20T02:03:27;1.40;;;1.40;;
18019;SDS011;9135;48.362;10.878;2023-05-20T02:05:53;1.15;;;1.00;;
18019;SDS011;9135;48.362;10.878;2023-05-20T02:08:19;1.38;;;1.38;;
18019;SDS011;9135;48.362;10.878;2023-05-20T02:10:47;2.13;;;1.92;;
18019;SDS011;9135;48.362;10.878;2023-05-20T02:13:13;2.80;;;1.90;;
18019;SDS011;9135;48.362;10.878;2023-05-20T02:15:42;1.60;;;1.50;;
18019;SDS011;9135;48.362;10.878;2023-05-20T02:18:09;2.40;;;1.42;;
18019;SDS011;9135;48.362;10.878;2023-05-20T02:20:36;1.60;;;1.50;;
18019;SDS011;9135;48.362;10.878;2023-05-20T02:23:02;1.98;;;1.60;;
18019;SDS011;9135;48.362;10.878;2023-05-20T02:25:30;1.85;;;1.75;;
18019;SDS011;9135;48.362;10.878;2023-05-20T02:27:56;1.75;;;1.65;;
18019;SDS011;9135;48.362;10.878;2023-05-20T02:30:22;2.17;;;1.98;;
18019;SDS011;9135;48.362;10.878;2023-05-20T02:32:48;1.60;;;1.50;;
18019;SDS011;9135;48.362;10.878;2023-05-20T02:35:15;1.37;;;1.27;;
18019;SDS011;9135;48.362;10.878;2023-05-20T02:37:41;2.83;;;2.53;;
18019;SDS011;9135;48.362;10.878;2023-05-20T02:40:09;2.63;;;2.20;;
18019;SDS011;9135;48.362;10.878;2023-05-20T02:42:35;3.10;;;1.53;;
18019;SDS011;9135;48.362;10.878;2023-05-20T02:45:01;2.40;;;1.77;;
18019;SDS011;9135;48.362;10.878;2023-05-20T02:47:27;2.58;;;1.60;;
18019;SDS011;9135;48.362;10.878;2023-05-20T02:49:53;2.95;;;1.75;;
18019;SDS011;9135;48.362;10.878;2023-05-20T02:52:19;1.73;;;1.60;;
18019;SDS011;9135;48.362;10.878;2023-05-20T02:54:46;1.90;;;1.75;;
18019;SDS011;9135;48.362;10.878;2023-05-20T02:57:12;1.60;;;1.50;;
18019;SDS011;9135;48.362;10.878;2023-05-20T02:59:38;1.67;;;1.58;;
18019;SDS011;9135;48.362;10.878;2023-05-20T03:02:04;1.70;;;1.63;;
18019;SDS011;9135;48.362;10.878;2023-05-20T03:04:30;4.03;;;1.88;;
18019;SDS011;9135;48.362;10.878;2023-05-20T03:06:56;1.83;;;1.73;;
18019;SDS011;9135;48.362;10.878;2023-05-20T03:09:22;2.13;;;1.80;;
18019;SDS011;9135;48.362;10.878;2023-05-20T03:11:49;1.42;;;1.42;;
18019;SDS011;9135;48.362;10.878;2023-05-20T03:14:15;2.00;;;1.90;;
18019;SDS011;9135;48.362;10.878;2023-05-20T03:16:41;1.73;;;1.63;;
18019;SDS011;9135;48.362;10.878;2023-05-20T03:19:07;5.20;;;2.35;;
18019;SDS011;9135;48.362;10.878;2023-05-20T03:21:33;2.63;;;2.42;;
18019;SDS011;9135;48.362;10.878;2023-05-20T03:23:59;1.53;;;1.43;;
18019;SDS011;9135;48.362;10.878;2023-05-20T03:26:25;3.73;;;2.10;;
18019;SDS011;9135;48.362;10.878;2023-05-20T03:28:51;3.53;;;1.80;;
18019;SDS011;9135;48.362;10.878;2023-05-20T03:31:17;1.70;;;1.60;;
18019;SDS011;9135;48.362;10.878;2023-05-20T03:33:43;1.83;;;1.73;;
18019;SDS011;9135;48.362;10.878;2023-05-20T03:36:10;2.22;;;2.03;;
18019;SDS011;9135;48.362;10.878;2023-05-20T03:38:36;2.53;;;2.33;;
18019;SDS011;9135;48.362;10.878;2023-05-20T03:41:02;1.83;;;1.73;;
18019;SDS011;9135;48.362;10.878;2023-05-20T03:43:28;2.13;;;1.95;;
18019;SDS011;9135;48.362;10.878;2023-05-20T03:45:54;3.25;;;2.15;;
18019;SDS011;9135;48.362;10.878;2023-05-20T03:48:20;1.75;;;1.67;;
18019;SDS011;9135;48.362;10.878;2023-05-20T03:50:46;2.33;;;2.13;;
18019;SDS011;9135;48.362;10.878;2023-05-20T03:53:12;1.97;;;1.80;;
18019;SDS011;9135;48.362;10.878;2023-05-20T03:55:38;2.47;;;2.37;;
18019;SDS011;9135;48.362;10.878;2023-05-20T03:58:05;6.70;;;1.83;;
18019;SDS011;9135;48.362;10.878;2023-05-20T04:00:32;4.03;;;1.97;;
18019;SDS011;9135;48.362;10.878;2023-05-20T04:02:58;2.22;;;2.00;;
18019;SDS011;9135;48.362;10.878;2023-05-20T04:05:24;3.07;;;2.07;;
18019;SDS011;9135;48.362;10.878;2023-05-20T04:07:50;1.87;;;1.77;;
18019;SDS011;9135;48.362;10.878;2023-05-20T04:10:17;1.33;;;1.33;;
18019;SDS011;9135;48.362;10.878;2023-05-20T04:12:44;2.15;;;1.95;;
18019;SDS011;9135;48.362;10.878;2023-05-20T04:15:11;2.53;;;2.33;;
18019;SDS011;9135;48.362;10.878;2023-05-20T04:17:37;3.17;;;2.70;;
18019;SDS011;9135;48.362;10.878;2023-05-20T04:20:04;4.50;;;2.75;;
18019;SDS011;9135;48.362;10.878;2023-05-20T04:22:32;4.93;;;2.30;;
18019;SDS011;9135;48.362;10.878;2023-05-20T04:24:59;3.15;;;2.83;;
18019;SDS011;9135;48.362;10.878;2023-05-20T04:27:27;5.07;;;2.50;;
18019;SDS011;9135;48.362;10.878;2023-05-20T04:29:53;2.67;;;2.30;;
18019;SDS011;9135;48.362;10.878;2023-05-20T04:32:22;3.75;;;2.42;;
18019;SDS011;9135;48.362;10.878;2023-05-20T04:34:48;2.17;;;1.77;;
18019;SDS011;9135;48.362;10.878;2023-05-20T04:37:14;2.78;;;2.45;;
18019;SDS011;9135;48.362;10.878;2023-05-20T04:39:40;3.47;;;3.17;;
18019;SDS011;9135;48.362;10.878;2023-05-20T04:42:07;3.55;;;2.15;;
18019;SDS011;9135;48.362;10.878;2023-05-20T04:44:33;2.83;;;2.58;;
18019;SDS011;9135;48.362;10.878;2023-05-20T04:46:59;3.50;;;2.30;;
18019;SDS011;9135;48.362;10.878;2023-05-20T04:49:26;2.72;;;2.10;;
18019;SDS011;9135;48.362;10.878;2023-05-20T04:51:53;3.35;;;2.15;;
18019;SDS011;9135;48.362;10.878;2023-05-20T04:54:20;3.25;;;2.58;;
18019;SDS011;9135;48.362;10.878;2023-05-20T04:56:46;3.92;;;2.20;;
18019;SDS011;9135;48.362;10.878;2023-05-20T04:59:12;2.45;;;2.25;;
18019;SDS011;9135;48.362;10.878;2023-05-20T05:01:38;2.53;;;2.33;;
18019;SDS011;9135;48.362;10.878;2023-05-20T05:04:04;3.35;;;2.67;;
18019;SDS011;9135;48.362;10.878;2023-05-20T05:06:30;4.88;;;2.40;;
18019;SDS011;9135;48.362;10.878;2023-05-20T05:08:56;4.18;;;3.35;;
18019;SDS011;9135;48.362;10.878;2023-05-20T05:11:22;2.33;;;2.20;;
18019;SDS011;9135;48.362;10.878;2023-05-20T05:13:48;1.93;;;1.83;;
18019;SDS011;9135;48.362;10.878;2023-05-20T05:16:14;4.90;;;3.38;;
18019;SDS011;9135;48.362;10.878;2023-05-20T05:18:40;1.70;;;1.60;;
18019;SDS011;9135;48.362;10.878;2023-05-20T05:21:06;2.35;;;2.17;;
18019;SDS011;9135;48.362;10.878;2023-05-20T05:23:32;3.53;;;3.27;;
18019;SDS011;9135;48.362;10.878;2023-05-20T05:25:58;2.65;;;2.45;;
18019;SDS011;9135;48.362;10.878;2023-05-20T05:28:25;2.37;;;2.27;;
18019;SDS011;9135;48.362;10.878;2023-05-20T05:30:52;9.60;;;3.75;;
18019;SDS011;9135;48.362;10.878;2023-05-20T05:33:19;4.15;;;2.40;;
18019;SDS011;9135;48.362;10.878;2023-05-20T05:35:45;3.00;;;2.50;;
18019;SDS011;9135;48.362;10.878;2023-05-20T05:38:11;4.18;;;2.90;;
18019;SDS011;9135;48.362;10.878;2023-05-20T05:40:38;3.38;;;2.53;;
18019;SDS011;9135;48.362;10.878;2023-05-20T05:43:04;3.05;;;2.85;;
18019;SDS011;9135;48.362;10.878;2023-05-20T05:45:30;3.55;;;3.30;;
18019;SDS011;9135;48.362;10.878;2023-05-20T05:47:56;4.97;;;3.72;;
18019;SDS011;9135;48.362;10.878;2023-05-20T05:50:22;4.43;;;2.95;;
18019;SDS011;9135;48.362;10.878;2023-05-20T05:52:48;4.33;;;3.50;;
18019;SDS011;9135;48.362;10.878;2023-05-20T05:55:14;5.90;;;3.85;;
18019;SDS011;9135;48.362;10.878;2023-05-20T05:57:40;6.07;;;2.87;;
18019;SDS011;9135;48.362;10.878;2023-05-20T06:00:06;4.27;;;3.93;;
18019;SDS011;9135;48.362;10.878;2023-05-20T06:02:33;3.50;;;3.03;;
18019;SDS011;9135;48.362;10.878;2023-05-20T06:05:02;3.35;;;2.47;;
18019;SDS011;9135;48.362;10.878;2023-05-20T06:07:28;4.88;;;3.40;;
18019;SDS011;9135;48.362;10.878;2023-05-20T06:09:54;3.63;;;2.80;;
18019;SDS011;9135;48.362;10.878;2023-05-20T06:12:20;5.82;;;3.20;;
18019;SDS011;9135;48.362;10.878;2023-05-20T06:14:47;2.47;;;2.30;;
18019;SDS011;9135;48.362;10.878;2023-05-20T06:17:13;3.10;;;2.88;;
18019;SDS011;9135;48.362;10.878;2023-05-20T06:19:39;4.60;;;4.05;;
18019;SDS011;9135;48.362;10.878;2023-05-20T06:22:05;3.30;;;2.50;;
18019;SDS011;9135;48.362;10.878;2023-05-20T06:24:32;5.72;;;2.92;;
18019;SDS011;9135;48.362;10.878;2023-05-20T06:26:58;4.60;;;3.40;;
18019;SDS011;9135;48.362;10.878;2023-05-20T06:29:24;3.70;;;2.95;;
18019;SDS011;9135;48.362;10.878;2023-05-20T06:31:50;3.80;;;3.50;;
18019;SDS011;9135;48.362;10.878;2023-05-20T06:34:16;7.97;;;3.45;;
18019;SDS011;9135;48.362;10.878;2023-05-20T06:36:42;4.38;;;3.08;;
18019;SDS011;9135;48.362;10.878;2023-05-20T06:39:08;4.53;;;3.33;;
18019;SDS011;9135;48.362;10.878;2023-05-20T06:41:39;3.00;;;2.75;;
18019;SDS011;9135;48.362;10.878;2023-05-20T06:44:05;3.13;;;2.88;;
18019;SDS011;9135;48.362;10.878;2023-05-20T06:46:31;3.03;;;2.80;;
18019;SDS011;9135;48.362;10.878;2023-05-20T06:48:57;4.25;;;3.90;;
18019;SDS011;9135;48.362;10.878;2023-05-20T06:51:23;4.40;;;3.40;;
18019;SDS011;9135;48.362;10.878;2023-05-20T06:53:50;3.90;;;3.13;;
18019;SDS011;9135;48.362;10.878;2023-05-20T06:56:16;3.58;;;3.28;;
18019;SDS011;9135;48.362;10.878;2023-05-20T06:58:42;3.88;;;2.72;;
18019;SDS011;9135;48.362;10.878;2023-05-20T07:01:08;3.25;;;2.97;;
18019;SDS011;9135;48.362;10.878;2023-05-20T07:03:34;3.67;;;3.38;;
18019;SDS011;9135;48.362;10.878;2023-05-20T07:06:00;5.60;;;3.97;;
18019;SDS011;9135;48.362;10.878;2023-05-20T07:08:26;4.25;;;3.50;;
18019;SDS011;9135;48.362;10.878;2023-05-20T07:10:54;3.30;;;3.00;;
18019;SDS011;9135;48.362;10.878;2023-05-20T07:13:21;3.63;;;3.13;;
18019;SDS011;9135;48.362;10.878;2023-05-20T07:15:50;3.38;;;3.08;;
18019;SDS011;9135;48.362;10.878;2023-05-20T07:18:16;4.00;;;3.00;;
18019;SDS011;9135;48.362;10.878;2023-05-20T07:20:42;4.07;;;2.85;;
18019;SDS011;9135;48.362;10.878;2023-05-20T07:23:08;5.07;;;4.03;;
18019;SDS011;9135;48.362;10.878;2023-05-20T07:25:35;3.83;;;2.85;;
18019;SDS011;9135;48.362;10.878;2023-05-20T07:28:01;3.65;;;3.35;;
18019;SDS011;9135;48.362;10.878;2023-05-20T07:30:27;3.35;;;3.15;;
18019;SDS011;9135;48.362;10.878;2023-05-20T07:32:53;6.18;;;4.18;;
18019;SDS011;9135;48.362;10.878;2023-05-20T07:35:19;6.03;;;4.40;;
18019;SDS011;9135;48.362;10.878;2023-05-20T07:37:45;4.55;;;4.15;;
18019;SDS011;9135;48.362;10.878;2023-05-20T07:40:11;4.93;;;3.33;;
18019;SDS011;9135;48.362;10.878;2023-05-20T07:42:38;3.78;;;3.47;;
18019;SDS011;9135;48.362;10.878;2023-05-20T07:45:04;6.15;;;4.57;;
18019;SDS011;9135;48.362;10.878;2023-05-20T07:47:30;3.13;;;2.85;;
18019;SDS011;9135;48.362;10.878;2023-05-20T07:49:57;3.53;;;3.33;;
18019;SDS011;9135;48.362;10.878;2023-05-20T07:52:23;4.50;;;3.00;;
18019;SDS011;9135;48.362;10.878;2023-05-20T07:54:49;3.90;;;3.47;;
18019;SDS011;9135;48.362;10.878;2023-05-20T07:57:15;5.45;;;3.65;;
18019;SDS011;9135;48.362;10.878;2023-05-20T07:59:42;4.63;;;3.63;;
18019;SDS011;9135;48.362;10.878;2023-05-20T08:02:08;4.40;;;2.97;;
18019;SDS011;9135;48.362;10.878;2023-05-20T08:04:34;6.80;;;3.05;;
18019;SDS011;9135;48.362;10.878;2023-05-20T08:07:01;4.75;;;3.22;;
18019;SDS011;9135;48.362;10.878;2023-05-20T08:09:27;3.15;;;2.95;;
18019;SDS011;9135;48.362;10.878;2023-05-20T08:11:53;2.97;;;2.65;;
18019;SDS011;9135;48.362;10.878;2023-05-20T08:14:19;5.25;;;3.60;;
18019;SDS011;9135;48.362;10.878;2023-05-20T08:16:45;3.40;;;3.10;;
18019;SDS011;9135;48.362;10.878;2023-05-20T08:19:11;3.45;;;2.83;;
18019;SDS011;9135;48.362;10.878;2023-05-20T08:21:37;4.22;;;3.40;;
18019;SDS011;9135;48.362;10.878;2023-05-20T08:24:04;5.22;;;3.60;;
18019;SDS011;9135;48.362;10.878;2023-05-20T08:26:30;2.50;;;2.40;;
18019;SDS011;9135;48.362;10.878;2023-05-20T08:28:56;3.30;;;3.00;;
18019;SDS011;9135;48.362;10.878;2023-05-20T08:31:22;2.95;;;2.65;;
18019;SDS011;9135;48.362;10.878;2023-05-20T08:33:48;3.05;;;2.70;;
18019;SDS011;9135;48.362;10.878;2023-05-20T08:36:14;5.07;;;4.13;;
18019;SDS011;9135;48.362;10.878;2023-05-20T08:38:40;4.60;;;3.63;;
18019;SDS011;9135;48.362;10.878;2023-05-20T08:41:07;2.97;;;2.65;;
18019;SDS011;9135;48.362;10.878;2023-05-20T08:43:33;2.97;;;2.70;;
18019;SDS011;9135;48.362;10.878;2023-05-20T08:45:59;2.88;;;2.67;;
18019;SDS011;9135;48.362;10.878;2023-05-20T08:48:28;5.07;;;3.63;;
18019;SDS011;9135;48.362;10.878;2023-05-20T08:50:55;2.80;;;2.60;;
18019;SDS011;9135;48.362;10.878;2023-05-20T08:53:22;3.33;;;3.03;;
18019;SDS011;9135;48.362;10.878;2023-05-20T08:55:52;3.15;;;2.75;;
18019;SDS011;9135;48.362;10.878;2023-05-20T08:58:19;3.55;;;3.25;;
18019;SDS011;9135;48.362;10.878;2023-05-20T09:00:45;2.95;;;2.75;;
18019;SDS011;9135;48.362;10.878;2023-05-20T09:03:11;7.28;;;4.78;;
18019;SDS011;9135;48.362;10.878;2023-05-20T09:05:37;4.95;;;3.22;;
18019;SDS011;9135;48.362;10.878;2023-05-20T09:08:04;4.28;;;3.50;;
18019;SDS011;9135;48.362;10.878;2023-05-20T09:10:31;3.58;;;2.90;;
18019;SDS011;9135;48.362;10.878;2023-05-20T09:12:58;3.03;;;2.13;;
18019;SDS011;9135;48.362;10.878;2023-05-20T09:15:25;2.70;;;2.50;;
18019;SDS011;9135;48.362;10.878;2023-05-20T09:17:51;8.48;;;2.97;;
18019;SDS011;9135;48.362;10.878;2023-05-20T09:20:20;3.05;;;2.75;;
18019;SDS011;9135;48.362;10.878;2023-05-20T09:22:46;2.55;;;2.22;;
18019;SDS011;9135;48.362;10.878;2023-05-20T09:25:17;4.55;;;3.25;;
18019;SDS011;9135;48.362;10.878;2023-05-20T09:27:43;2.78;;;2.53;;
18019;SDS011;9135;48.362;10.878;2023-05-20T09:30:10;2.53;;;2.22;;
18019;SDS011;9135;48.362;10.878;2023-05-20T09:32:37;3.05;;;2.80;;
18019;SDS011;9135;48.362;10.878;2023-05-20T09:35:03;2.70;;;2.50;;
18019;SDS011;9135;48.362;10.878;2023-05-20T09:37:30;4.80;;;2.72;;
18019;SDS011;9135;48.362;10.878;2023-05-20T09:40:00;2.90;;;2.53;;
18019;SDS011;9135;48.362;10.878;2023-05-20T09:42:33;8.38;;;3.83;;
18019;SDS011;9135;48.362;10.878;2023-05-20T09:45:00;3.38;;;2.42;;
18019;SDS011;9135;48.362;10.878;2023-05-20T09:47:28;1.80;;;1.70;;
18019;SDS011;9135;48.362;10.878;2023-05-20T09:49:55;1.98;;;1.88;;
18019;SDS011;9135;48.362;10.878;2023-05-20T09:52:22;2.25;;;2.10;;
18019;SDS011;9135;48.362;10.878;2023-05-20T09:54:48;2.72;;;2.20;;
18019;SDS011;9135;48.362;10.878;2023-05-20T09:57:15;4.25;;;2.42;;
18019;SDS011;9135;48.362;10.878;2023-05-20T09:59:41;2.85;;;2.35;;
18019;SDS011;9135;48.362;10.878;2023-05-20T10:02:08;2.72;;;2.17;;
18019;SDS011;9135;48.362;10.878;2023-05-20T10:04:35;4.75;;;2.35;;
18019;SDS011;9135;48.362;10.878;2023-05-20T10:09:35;3.50;;;2.05;;
18019;SDS011;9135;48.362;10.878;2023-05-20T10:17:09;2.10;;;1.83;;
18019;SDS011;9135;48.362;10.878;2023-05-20T10:19:36;1.65;;;1.55;;
18019;SDS011;9135;48.362;10.878;2023-05-20T10:22:06;1.83;;;1.70;;
18019;SDS011;9135;48.362;10.878;2023-05-20T10:24:39;4.20;;;2.33;;
18019;SDS011;9135;48.362;10.878;2023-05-20T10:27:09;2.42;;;2.00;;
18019;SDS011;9135;48.362;10.878;2023-05-20T10:29:49;2.90;;;2.05;;
18019;SDS011;9135;48.362;10.878;2023-05-20T10:34:51;1.73;;;1.63;;
18019;SDS011;9135;48.362;10.878;2023-05-20T10:37:23;3.03;;;1.83;;
18019;SDS011;9135;48.362;10.878;2023-05-20T10:39:50;4.00;;;1.85;;
18019;SDS011;9135;48.362;10.878;2023-05-20T10:42:16;2.00;;;1.75;;
18019;SDS011;9135;48.362;10.878;2023-05-20T10:44:52;2.47;;;2.28;;
18019;SDS011;9135;48.362;10.878;2023-05-20T10:47:18;1.75;;;1.65;;
18019;SDS011;9135;48.362;10.878;2023-05-20T10:49:44;2.15;;;1.92;;
18019;SDS011;9135;48.362;10.878;2023-05-20T10:52:15;2.22;;;2.03;;
18019;SDS011;9135;48.362;10.878;2023-05-20T10:54:45;2.85;;;1.90;;
18019;SDS011;9135;48.362;10.878;2023-05-20T10:57:12;2.08;;;1.67;;
18019;SDS011;9135;48.362;10.878;2023-05-20T10:59:38;2.35;;;2.15;;
18019;SDS011;9135;48.362;10.878;2023-05-20T11:02:05;2.45;;;1.48;;
18019;SDS011;9135;48.362;10.878;2023-05-20T11:04:31;1.73;;;1.63;;
18019;SDS011;9135;48.362;10.878;2023-05-20T11:07:00;2.33;;;1.85;;
18019;SDS011;9135;48.362;10.878;2023-05-20T11:09:27;2.22;;;2.05;;
18019;SDS011;9135;48.362;10.878;2023-05-20T11:11:55;2.10;;;2.00;;
18019;SDS011;9135;48.362;10.878;2023-05-20T11:14:21;2.13;;;2.03;;
18019;SDS011;9135;48.362;10.878;2023-05-20T11:16:59;1.45;;;1.27;;
18019;SDS011;9135;48.362;10.878;2023-05-20T11:19:25;2.53;;;1.52;;
18019;SDS011;9135;48.362;10.878;2023-05-20T11:21:52;2.03;;;1.90;;
18019;SDS011;9135;48.362;10.878;2023-05-20T11:24:21;2.25;;;1.55;;
18019;SDS011;9135;48.362;10.878;2023-05-20T11:26:48;1.67;;;1.58;;
18019;SDS011;9135;48.362;10.878;2023-05-20T11:29:16;1.77;;;1.67;;
18019;SDS011;9135;48.362;10.878;2023-05-20T11:31:43;2.45;;;1.90;;
18019;SDS011;9135;48.362;10.878;2023-05-20T11:34:09;1.98;;;1.85;;
18019;SDS011;9135;48.362;10.878;2023-05-20T11:36:39;1.77;;;1.67;;
18019;SDS011;9135;48.362;10.878;2023-05-20T11:39:05;1.63;;;1.50;;
18019;SDS011;9135;48.362;10.878;2023-05-20T11:41:31;3.20;;;1.95;;
18019;SDS011;9135;48.362;10.878;2023-05-20T11:43:58;2.47;;;2.25;;
18019;SDS011;9135;48.362;10.878;2023-05-20T11:46:25;1.55;;;1.45;;
18019;SDS011;9135;48.362;10.878;2023-05-20T11:48:54;2.22;;;1.83;;
18019;SDS011;9135;48.362;10.878;2023-05-20T11:51:23;3.28;;;1.60;;
18019;SDS011;9135;48.362;10.878;2023-05-20T11:53:50;2.70;;;1.92;;
18019;SDS011;9135;48.362;10.878;2023-05-20T11:56:16;3.65;;;1.65;;
18019;SDS011;9135;48.362;10.878;2023-05-20T11:58:42;1.98;;;1.67;;
18019;SDS011;9135;48.362;10.878;2023-05-20T12:01:09;1.88;;;1.60;;
18019;SDS011;9135;48.362;10.878;2023-05-20T12:03:35;2.10;;;1.80;;
18019;SDS011;9135;48.362;10.878;2023-05-20T12:06:02;2.47;;;2.28;;
18019;SDS011;9135;48.362;10.878;2023-05-20T12:08:28;4.50;;;2.17;;
18019;SDS011;9135;48.362;10.878;2023-05-20T12:10:55;2.63;;;1.98;;
18019;SDS011;9135;48.362;10.878;2023-05-20T12:13:21;1.85;;;1.45;;
18019;SDS011;9135;48.362;10.878;2023-05-20T12:15:47;1.50;;;1.42;;
18019;SDS011;9135;48.362;10.878;2023-05-20T12:18:13;1.98;;;1.88;;
18019;SDS011;9135;48.362;10.878;2023-05-20T12:20:41;1.70;;;1.42;;
18019;SDS011;9135;48.362;10.878;2023-05-20T12:23:07;1.23;;;1.20;;
18019;SDS011;9135;48.362;10.878;2023-05-20T12:25:33;2.25;;;1.67;;
18019;SDS011;9135;48.362;10.878;2023-05-20T12:28:00;1.77;;;1.67;;
18019;SDS011;9135;48.362;10.878;2023-05-20T12:30:26;1.67;;;1.52;;
18019;SDS011;9135;48.362;10.878;2023-05-20T12:32:52;1.50;;;1.40;;
18019;SDS011;9135;48.362;10.878;2023-05-20T12:35:23;2.40;;;2.20;;
18019;SDS011;9135;48.362;10.878;2023-05-20T12:37:49;3.13;;;2.05;;
18019;SDS011;9135;48.362;10.878;2023-05-20T12:40:15;1.52;;;1.40;;
18019;SDS011;9135;48.362;10.878;2023-05-20T12:42:43;1.00;;;1.00;;
18019;SDS011;9135;48.362;10.878;2023-05-20T12:45:09;2.58;;;1.73;;
18019;SDS011;9135;48.362;10.878;2023-05-20T12:47:36;1.27;;;1.17;;
18019;SDS011;9135;48.362;10.878;2023-05-20T12:50:02;2.03;;;1.85;;
18019;SDS011;9135;48.362;10.878;2023-05-20T12:52:28;1.35;;;1.25;;
18019;SDS011;9135;48.362;10.878;2023-05-20T12:54:55;2.05;;;1.10;;
18019;SDS011;9135;48.362;10.878;2023-05-20T12:57:22;1.25;;;1.20;;
18019;SDS011;9135;48.362;10.878;2023-05-20T12:59:48;1.08;;;1.00;;
18019;SDS011;9135;48.362;10.878;2023-05-20T13:02:14;1.67;;;1.55;;
18019;SDS011;9135;48.362;10.878;2023-05-20T13:04:40;1.67;;;1.48;;
18019;SDS011;9135;48.362;10.878;2023-05-20T13:07:06;4.22;;;2.05;;
18019;SDS011;9135;48.362;10.878;2023-05-20T13:09:32;2.22;;;1.50;;
18019;SDS011;9135;48.362;10.878;2023-05-20T13:11:59;1.60;;;1.10;;
18019;SDS011;9135;48.362;10.878;2023-05-20T13:14:25;1.73;;;1.60;;
18019;SDS011;9135;48.362;10.878;2023-05-20T13:16:52;1.73;;;1.63;;
18019;SDS011;9135;48.362;10.878;2023-05-20T13:19:22;5.88;;;2.50;;
18019;SDS011;9135;48.362;10.878;2023-05-20T13:21:48;1.58;;;1.48;;
18019;SDS011;9135;48.362;10.878;2023-05-20T13:24:15;1.38;;;1.20;;
18019;SDS011;9135;48.362;10.878;2023-05-20T13:26:41;2.58;;;2.38;;
18019;SDS011;9135;48.362;10.878;2023-05-20T13:29:07;1.30;;;1.20;;
18019;SDS011;9135;48.362;10.878;2023-05-20T13:31:34;1.88;;;1.77;;
18019;SDS011;9135;48.362;10.878;2023-05-20T13:34:01;4.88;;;1.55;;
18019;SDS011;9135;48.362;10.878;2023-05-20T13:36:27;1.42;;;1.30;;
18019;SDS011;9135;48.362;10.878;2023-05-20T13:38:53;2.70;;;1.70;;
18019;SDS011;9135;48.362;10.878;2023-05-20T13:41:19;1.73;;;1.50;;
18019;SDS011;9135;48.362;10.878;2023-05-20T13:43:45;1.52;;;1.42;;
18019;SDS011;9135;48.362;10.878;2023-05-20T13:46:11;2.17;;;1.67;;
18019;SDS011;9135;48.362;10.878;2023-05-20T13:48:37;1.60;;;1.50;;
18019;SDS011;9135;48.362;10.878;2023-05-20T13:51:03;1.75;;;1.50;;
18019;SDS011;9135;48.362;10.878;2023-05-20T13:53:29;2.50;;;1.92;;
18019;SDS011;9135;48.362;10.878;2023-05-20T13:55:55;2.90;;;1.55;;
18019;SDS011;9135;48.362;10.878;2023-05-20T13:58:21;2.05;;;1.33;;
18019;SDS011;9135;48.362;10.878;2023-05-20T14:00:48;1.67;;;1.58;;
18019;SDS011;9135;48.362;10.878;2023-05-20T14:03:14;1.83;;;1.50;;
18019;SDS011;9135;48.362;10.878;2023-05-20T14:05:40;2.50;;;1.98;;
18019;SDS011;9135;48.362;10.878;2023-05-20T14:08:06;2.47;;;1.85;;
18019;SDS011;9135;48.362;10.878;2023-05-20T14:10:32;2.72;;;2.13;;
18019;SDS011;9135;48.362;10.878;2023-05-20T14:12:58;1.80;;;1.65;;
18019;SDS011;9135;48.362;10.878;2023-05-20T14:15:26;2.38;;;2.17;;
18019;SDS011;9135;48.362;10.878;2023-05-20T14:17:55;3.03;;;1.55;;
18019;SDS011;9135;48.362;10.878;2023-05-20T14:20:24;2.25;;;1.95;;
18019;SDS011;9135;48.362;10.878;2023-05-20T14:22:51;2.05;;;1.85;;
18019;SDS011;9135;48.362;10.878;2023-05-20T14:25:17;3.30;;;2.80;;
18019;SDS011;9135;48.362;10.878;2023-05-20T14:27:43;3.60;;;2.90;;
18019;SDS011;9135;48.362;10.878;2023-05-20T14:30:10;2.42;;;1.90;;
18019;SDS011;9135;48.362;10.878;2023-05-20T14:32:36;2.45;;;1.70;;
18019;SDS011;9135;48.362;10.878;2023-05-20T14:35:03;2.40;;;2.30;;
18019;SDS011;9135;48.362;10.878;2023-05-20T14:37:29;2.85;;;1.80;;
18019;SDS011;9135;48.362;10.878;2023-05-20T14:39:55;3.35;;;2.22;;
18019;SDS011;9135;48.362;10.878;2023-05-20T14:42:30;2.28;;;1.73;;
18019;SDS011;9135;48.362;10.878;2023-05-20T14:44:56;2.35;;;1.98;;
18019;SDS011;9135;48.362;10.878;2023-05-20T14:47:22;2.75;;;2.55;;
18019;SDS011;9135;48.362;10.878;2023-05-20T14:49:49;3.38;;;2.47;;
18019;SDS011;9135;48.362;10.878;2023-05-20T14:52:16;4.03;;;2.20;;
18019;SDS011;9135;48.362;10.878;2023-05-20T14:54:42;2.90;;;2.22;;